Aérodrome :
LOGIN :

S'inscrire | Disclaimer

   EN    FR    IT 

 










Légende :    VFR   VFR Marginal   IFR   IFR Intensif   IFR Très Intensif
Visi : 
Plafond : 
>= 8 km
>= 3000ft
5 à 8 km
1000 à 3000 ft
1500m à 5 km
500 à 1000 ft
800 à 1500m
200 à 500 ft
< 800m
< 200 ft
Symboles :   Orages  Brouillard  Fortes neiges  Fortes précipitations  Vent > 20 kt
SIGMETs :   Divers  Orages  Givrage  Turbulence  Onde Orograph.  Cendres Volcan.






- Altitude de l'aérodrome : 124 ft
- Code IATA : NHT


EGWU - RAF Northolt

DERNIER METAR :
  • 232220Z 07014KT 9999 SCT022 BKN140 17/12 Q1013 TEMPO FEW022 RMK WHT TEMPO BLU

METARs EXPIRÉS :
  • 232150Z 08011KT 9999 BKN022 BKN140 17/12 Q1013 NOSIG RMK WHT WHT
  • 232120Z 08012KT 9999 BKN023 BKN200 18/12 Q1014 TEMPO FEW025 RMK WHT TEMPO BLU
  • 232050Z 09011KT 9999 SCT023 BKN200 18/12 Q1013 TEMPO FEW025 RMK WHT TEMPO BLU
  • 231950Z 07013KT 9999 FEW024 SCT200 18/12 Q1012 TEMPO SCT024 RMK BLU TEMPO WHT

TAF TAF EGWU
Valide du 23 à 21h jusqu'au 24 à 15h UTC


231952Z 2321/2415 09014KT 9999 SCT025
TEMPO 2321/2324 SCT020
TEMPO 2400/2407 08015G25KT
PROB40 2400/2406 BKN012
TEMPO 2406/2411 7000 SHRA BKN018CB
PROB30
TEMPO 2406/2411 09015G25KT 3000 +SHRA SHGS SCT012
PROB30
TEMPO 2411/2415 7000 SHRA BKN018CB



MET'MAP, la Météo Aéronautique d'un coup d'oeil ! - Copyright ORBIFLY Décembre 2007 - Disclaimer

ORBIFLY MET'MAP TEAM :

Programmation & Développement : Alexandra Zaïnal
Sur une idée originale de : Baudouin d'Aumeries
Assistance à la programmation : Marc-Olivier Méhu
Soutien technique & logistique : Manuel Goepfert

Contact : metmap@orbifly.com




SOURCES & CREDITS :

   NOAA